This is the latest recevied weather packets stored in our database for station/object WX4ET. If no packets are shown the sender has not sent any weather packets the latest 1 day(s).
| Time | Temp. | Humidity | Pressure | Rain* | Wind** | Luminosity | Snow |
|---|---|---|---|---|---|---|---|
| 1777999268 | 23.89° C | 48% | 1009.6 hPa | 0 mm | 2.68 m/s, 256° | 400 W/m² | - |
| 1777998966 | 23.89° C | 47% | 1009.8 hPa | 0 mm | 2.24 m/s, 213° | 376 W/m² | - |
| 1777998663 | 23.89° C | 49% | 1009.8 hPa | 0 mm | 1.34 m/s, 273° | 484 W/m² | - |
| 1777998361 | 23.89° C | 46% | 1009.8 hPa | 0 mm | 1.79 m/s, 289° | 552 W/m² | - |
| 1777998058 | 23.89° C | 47% | 1009.9 hPa | 0 mm | 1.79 m/s, 280° | 572 W/m² | - |
| 1777997755 | 23.89° C | 46% | 1010 hPa | 0 mm | 3.13 m/s, 260° | 481 W/m² | - |
| 1777997452 | 23.33° C | 49% | 1010 hPa | 0 mm | 1.34 m/s, 300° | 530 W/m² | - |
| 1777997150 | 23.33° C | 47% | 1009.9 hPa | 0 mm | 3.13 m/s, 339° | 610 W/m² | - |
| 1777996847 | 23.33° C | 49% | 1010.1 hPa | 0 mm | 2.24 m/s, 282° | 600 W/m² | - |
| 1777996543 | 23.33° C | 49% | 1010.1 hPa | 0 mm | 0.45 m/s, 247° | 586 W/m² | - |
| 1777996239 | 23.33° C | 48% | 1010.2 hPa | 0 mm | 1.79 m/s, 292° | 553 W/m² | - |
| 1777995936 | 23.33° C | 52% | 1010.5 hPa | 0 mm | 1.34 m/s, 294° | 588 W/m² | - |
| 1777995632 | 23.33° C | 50% | 1010.2 hPa | 0 mm | 0.89 m/s, 193° | 494 W/m² | - |
| 1777995330 | 23.33° C | 50% | 1010.3 hPa | 0 mm | 1.79 m/s, 270° | 522 W/m² | - |
| 1777995026 | 22.78° C | 53% | 1010.4 hPa | 0 mm | 0.45 m/s, 59° | 501 W/m² | - |
| 1777994723 | 22.78° C | 54% | 1010.4 hPa | 0 mm | 1.79 m/s, 304° | 501 W/m² | - |
| 1777994419 | 22.22° C | 53% | 1010.6 hPa | 0 mm | 1.34 m/s, 256° | 551 W/m² | - |
| 1777994114 | 22.22° C | 53% | 1010.5 hPa | 0 mm | 1.34 m/s, 245° | 482 W/m² | - |
| 1777993811 | 22.22° C | 57% | 1010.5 hPa | 0 mm | 0.45 m/s, 266° | 471 W/m² | - |
| 1777993508 | 22.78° C | 56% | 1010.6 hPa | 0 mm | 1.34 m/s, 209° | 618 W/m² | - |
| 1777993203 | 21.67° C | 56% | 1010.4 hPa | 0 mm | 0 m/s | 590 W/m² | - |
| 1777992900 | 21.67° C | 58% | 1010.6 hPa | 0 mm | 0.89 m/s, 190° | 506 W/m² | - |
| 1777992599 | 22.22° C | 57% | 1010.4 hPa | 0 mm | 0 m/s | 470 W/m² | - |
| 1777992296 | 20.56° C | 58% | 1010.6 hPa | 0 mm | 0 m/s | 529 W/m² | - |
| 1777991993 | 21.11° C | 58% | 1010.3 hPa | 0 mm | 0.45 m/s, 46° | 472 W/m² | - |
* Rain latest hour (hover to see other rain measurements)
** Current wind speed in m/s (hover to see current wind gust speed)